Time;durP1;ratioP1;P1;durP2;ratioP2;P2;SDS_P1;SDS_P2;PMS_P1;PMS_P2;Temp;Humidity;BMP_temperature;BMP_pressure;BME280_temperature;BME280_humidity;BME280_pressure;Samples;Min_cycle;Max_cycle;Signal;HPM_P1;HPM_P2
2023/01/21 00:01:21;;;;;;;81.70;52.70;;;;;;;;;;4945475;28;20194;-89
2023/01/21 00:03:47;;;;;;;82.80;50.57;;;;;;;;;;4965981;28;20194;-89
2023/01/21 00:06:13;;;;;;;77.60;48.40;;;;;;;;;;4978759;28;20191;-89
2023/01/21 00:08:40;;;;;;;69.20;44.30;;;;;;;;;;4960537;28;20273;-89
2023/01/21 00:11:15;;;;;;;66.90;41.70;;;;;;;;;;4988137;28;20266;-89
2023/01/21 00:13:42;;;;;;;66.57;41.50;;;;;;;;;;4971351;28;20182;-89
2023/01/21 00:16:08;;;;;;;67.87;41.57;;;;;;;;;;4967272;28;20219;-81
2023/01/21 00:18:35;;;;;;;66.87;40.47;;;;;;;;;;4972080;28;20186;-81
2023/01/21 00:21:01;;;;;;;62.83;38.97;;;;;;;;;;4971730;28;20178;-82
2023/01/21 00:23:27;;;;;;;65.23;39.43;;;;;;;;;;4958077;28;20191;-82
2023/01/21 00:25:57;;;;;;;63.33;38.40;;;;;;;;;;4978213;28;20175;-82
2023/01/21 00:28:23;;;;;;;58.77;36.87;;;;;;;;;;4996554;28;20229;-81
2023/01/21 00:30:49;;;;;;;62.67;37.50;;;;;;;;;;4980693;28;20174;-82
2023/01/21 00:33:15;;;;;;;56.00;36.27;;;;;;;;;;4961443;28;20189;-79
2023/01/21 00:35:41;;;;;;;57.37;35.33;;;;;;;;;;4961546;28;20219;-79
2023/01/21 00:38:07;;;;;;;57.40;35.33;;;;;;;;;;4961462;28;20258;-79
2023/01/21 00:40:33;;;;;;;55.43;34.60;;;;;;;;;;4961236;28;20184;-79
2023/01/21 00:42:59;;;;;;;56.27;33.27;;;;;;;;;;4960578;28;20216;-81
2023/01/21 00:45:25;;;;;;;51.73;33.50;;;;;;;;;;4960987;28;20321;-79
2023/01/21 00:47:51;;;;;;;52.23;33.43;;;;;;;;;;4964265;28;20190;-80
2023/01/21 00:50:17;;;;;;;53.97;33.13;;;;;;;;;;4964002;28;20230;-82
2023/01/21 00:52:43;;;;;;;53.87;34.17;;;;;;;;;;4964167;28;20201;-82
2023/01/21 00:55:09;;;;;;;53.73;33.27;;;;;;;;;;4980235;28;20185;-82
2023/01/21 00:57:35;;;;;;;51.23;33.17;;;;;;;;;;4960487;28;20189;-82
2023/01/21 01:00:01;;;;;;;54.77;34.27;;;;;;;;;;4960934;28;20202;-82
2023/01/21 01:02:27;;;;;;;53.47;33.27;;;;;;;;;;4992067;28;20190;-82
2023/01/21 01:04:53;;;;;;;50.13;32.47;;;;;;;;;;4944863;28;20318;-82
2023/01/21 01:07:19;;;;;;;56.70;32.60;;;;;;;;;;4945807;28;20195;-82
2023/01/21 01:09:45;;;;;;;51.33;33.83;;;;;;;;;;4979711;28;20329;-81
2023/01/21 01:12:11;;;;;;;52.90;32.63;;;;;;;;;;4963070;28;20182;-82
2023/01/21 01:14:37;;;;;;;54.70;32.53;;;;;;;;;;4965464;28;20191;-81
2023/01/21 01:17:03;;;;;;;54.03;31.47;;;;;;;;;;4966829;28;20262;-82
2023/01/21 01:19:29;;;;;;;50.63;32.47;;;;;;;;;;4946012;28;20194;-81
2023/01/21 01:21:55;;;;;;;51.27;31.77;;;;;;;;;;4960691;28;20183;-81
2023/01/21 01:24:21;;;;;;;50.93;31.93;;;;;;;;;;4960381;28;20254;-79
2023/01/21 01:26:47;;;;;;;53.33;31.27;;;;;;;;;;4944353;28;20334;-79
2023/01/21 01:29:13;;;;;;;58.13;32.40;;;;;;;;;;4957978;28;20214;-79
2023/01/21 01:31:40;;;;;;;51.10;31.33;;;;;;;;;;4963464;28;20213;-79
2023/01/21 01:34:06;;;;;;;51.77;32.07;;;;;;;;;;4968578;28;20262;-79
2023/01/21 01:36:32;;;;;;;51.93;31.30;;;;;;;;;;4966059;28;20189;-79
2023/01/21 01:38:58;;;;;;;51.53;30.57;;;;;;;;;;4969064;28;20261;-79
2023/01/21 01:41:26;;;;;;;59.27;33.57;;;;;;;;;;4960179;28;20206;-81
2023/01/21 01:44:18;;;;;;;53.03;31.53;;;;;;;;;;4959939;28;20182;-81
2023/01/21 01:46:44;;;;;;;50.87;31.40;;;;;;;;;;4952318;28;20218;-81
2023/01/21 01:49:18;;;;;;;53.47;31.23;;;;;;;;;;4953822;28;20260;-82
2023/01/21 01:51:51;;;;;;;50.27;30.23;;;;;;;;;;4966565;28;20187;-81
2023/01/21 01:54:19;;;;;;;54.00;30.33;;;;;;;;;;4985266;28;20237;-81
2023/01/21 01:56:47;;;;;;;54.53;31.77;;;;;;;;;;4959681;28;20174;-81
2023/01/21 01:59:13;;;;;;;52.67;31.27;;;;;;;;;;4969033;28;20240;-81
2023/01/21 02:01:42;;;;;;;53.03;31.03;;;;;;;;;;4979536;28;20183;-82
2023/01/21 02:04:11;;;;;;;48.47;30.40;;;;;;;;;;4976767;23;20324;-88
2023/01/21 02:06:38;;;;;;;53.50;31.43;;;;;;;;;;5015802;28;20184;-90
2023/01/21 02:09:04;;;;;;;54.67;31.40;;;;;;;;;;4990141;28;20245;-89
2023/01/21 02:11:30;;;;;;;49.47;29.93;;;;;;;;;;4963448;28;20220;-89
2023/01/21 02:13:58;;;;;;;52.40;31.33;;;;;;;;;;4962882;28;20213;-79
2023/01/21 02:16:36;;;;;;;49.87;29.50;;;;;;;;;;4978194;28;20178;-79
2023/01/21 02:19:21;;;;;;;51.70;32.30;;;;;;;;;;4978492;28;20186;-79
2023/01/21 02:21:53;;;;;;;51.37;30.33;;;;;;;;;;4978590;28;20188;-79
2023/01/21 02:24:28;;;;;;;52.07;29.90;;;;;;;;;;4977121;28;20202;-79
2023/01/21 02:27:03;;;;;;;55.83;30.43;;;;;;;;;;5013520;28;20221;-79
2023/01/21 02:29:51;;;;;;;50.53;30.00;;;;;;;;;;4978430;28;20268;-82
2023/01/21 02:32:17;;;;;;;48.83;29.13;;;;;;;;;;4978742;28;20182;-81
2023/01/21 02:34:55;;;;;;;50.80;30.27;;;;;;;;;;4978527;28;20201;-82
2023/01/21 02:37:30;;;;;;;52.20;30.60;;;;;;;;;;4978278;28;20200;-82
2023/01/21 02:40:00;;;;;;;55.63;31.40;;;;;;;;;;4984172;28;20197;-81
2023/01/21 02:42:26;;;;;;;52.77;31.37;;;;;;;;;;4987569;28;20198;-82
2023/01/21 02:44:55;;;;;;;54.00;29.70;;;;;;;;;;4978408;28;20198;-81
2023/01/21 02:47:40;;;;;;;51.30;29.57;;;;;;;;;;4977945;28;20194;-81
2023/01/21 02:50:15;;;;;;;53.93;30.30;;;;;;;;;;4978446;28;20217;-81
2023/01/21 02:52:41;;;;;;;50.33;30.70;;;;;;;;;;4984238;28;20259;-81
2023/01/21 02:55:15;;;;;;;53.17;31.17;;;;;;;;;;4993433;28;20204;-81
2023/01/21 02:57:43;;;;;;;57.13;29.90;;;;;;;;;;4991090;28;20276;-81
2023/01/21 03:00:11;;;;;;;54.53;30.87;;;;;;;;;;4980182;28;20186;-81
2023/01/21 03:02:47;;;;;;;55.20;29.23;;;;;;;;;;4981298;28;20181;-81
2023/01/21 03:05:24;;;;;;;55.40;30.93;;;;;;;;;;5011925;28;21817;-81
2023/01/21 03:08:06;;;;;;;52.30;29.43;;;;;;;;;;4978112;28;20185;-81
2023/01/21 03:10:43;;;;;;;59.57;32.30;;;;;;;;;;4994881;28;20297;-81
2023/01/21 03:19:12;;;;;;;56.93;31.50;;;;;;;;;;4994755;28;20208;-90
2023/01/21 03:21:38;;;;;;;57.57;31.43;;;;;;;;;;4995022;28;20209;-89
2023/01/21 03:24:06;;;;;;;59.50;31.87;;;;;;;;;;4977693;28;20196;-89
2023/01/21 03:26:33;;;;;;;58.80;31.53;;;;;;;;;;4988825;28;20271;-90
2023/01/21 03:29:00;;;;;;;53.27;31.23;;;;;;;;;;4980408;28;20293;-89
2023/01/21 03:31:28;;;;;;;55.97;30.57;;;;;;;;;;4996180;28;20205;-89
2023/01/21 03:33:59;;;;;;;53.60;30.90;;;;;;;;;;4996987;28;20181;-89
2023/01/21 03:36:37;;;;;;;53.47;29.90;;;;;;;;;;5000826;28;20184;-89
2023/01/21 03:39:06;;;;;;;55.60;32.37;;;;;;;;;;5000990;28;20183;-89
2023/01/21 03:41:35;;;;;;;58.00;32.47;;;;;;;;;;5001189;28;20231;-89
2023/01/21 03:44:01;;;;;;;56.13;31.87;;;;;;;;;;5001048;28;20181;-89
2023/01/21 03:46:33;;;;;;;55.33;32.53;;;;;;;;;;4984908;28;20185;-89
2023/01/21 03:49:04;;;;;;;60.93;32.77;;;;;;;;;;5000863;28;20232;-89
2023/01/21 03:51:36;;;;;;;56.20;31.73;;;;;;;;;;5018391;28;20177;-89
2023/01/21 03:54:02;;;;;;;56.60;31.10;;;;;;;;;;5000720;28;20211;-79
2023/01/21 03:56:28;;;;;;;51.20;30.23;;;;;;;;;;4993680;28;20178;-79
2023/01/21 03:58:54;;;;;;;52.57;31.17;;;;;;;;;;4981458;28;20178;-79
2023/01/21 04:01:21;;;;;;;57.03;31.57;;;;;;;;;;4981933;28;20182;-79
2023/01/21 04:03:47;;;;;;;57.67;30.73;;;;;;;;;;4984109;28;20237;-79
2023/01/21 04:06:14;;;;;;;57.87;31.53;;;;;;;;;;5000723;28;20276;-79
2023/01/21 04:08:40;;;;;;;54.90;31.30;;;;;;;;;;4987184;28;20300;-80
2023/01/21 04:11:06;;;;;;;57.73;31.13;;;;;;;;;;4981106;28;20186;-79
2023/01/21 04:13:32;;;;;;;60.80;33.20;;;;;;;;;;4964880;28;20178;-79
2023/01/21 04:15:58;;;;;;;58.87;32.53;;;;;;;;;;4981886;28;20186;-79
2023/01/21 04:18:24;;;;;;;59.00;32.67;;;;;;;;;;5000397;28;20186;-79
2023/01/21 04:20:50;;;;;;;63.30;33.83;;;;;;;;;;5000555;28;20235;-79
2023/01/21 04:23:16;;;;;;;63.47;32.50;;;;;;;;;;4983394;28;20231;-79
2023/01/21 04:25:42;;;;;;;71.35;38.00;;;;;;;;;;4980611;28;20420;-79
2023/01/21 04:28:08;;;;;;;62.80;34.40;;;;;;;;;;4981575;28;20240;-79
2023/01/21 04:30:34;;;;;;;62.17;33.83;;;;;;;;;;4980190;28;20174;-80
2023/01/21 04:33:00;;;;;;;59.90;33.23;;;;;;;;;;4994949;28;20189;-79
2023/01/21 04:35:26;;;;;;;63.67;33.97;;;;;;;;;;5007023;28;20185;-79
2023/01/21 04:37:52;;;;;;;59.10;33.67;;;;;;;;;;5003171;28;20182;-79
2023/01/21 04:40:18;;;;;;;59.43;32.87;;;;;;;;;;4978376;28;20198;-79
2023/01/21 04:42:44;;;;;;;76.53;42.70;;;;;;;;;;4997028;28;20447;-89
2023/01/21 04:45:10;;;;;;;61.17;35.43;;;;;;;;;;4978576;28;20197;-89
2023/01/21 04:47:40;;;;;;;64.53;33.97;;;;;;;;;;5005618;28;20240;-90
2023/01/21 04:50:06;;;;;;;62.67;33.70;;;;;;;;;;4985582;28;20209;-88
2023/01/21 04:52:32;;;;;;;66.37;33.13;;;;;;;;;;4979455;28;20201;-89
2023/01/21 04:54:58;;;;;;;63.80;33.53;;;;;;;;;;4969439;28;20186;-89
2023/01/21 04:57:24;;;;;;;67.27;34.47;;;;;;;;;;4987784;28;20186;-90
2023/01/21 04:59:50;;;;;;;64.73;34.10;;;;;;;;;;4983895;28;20244;-89
2023/01/21 05:02:16;;;;;;;64.77;33.90;;;;;;;;;;4977946;28;20232;-89
2023/01/21 05:04:42;;;;;;;67.80;34.03;;;;;;;;;;4983565;28;20240;-89
2023/01/21 05:07:08;;;;;;;66.67;34.40;;;;;;;;;;4995636;28;20186;-89
2023/01/21 05:09:34;;;;;;;64.97;34.77;;;;;;;;;;5016937;28;20209;-89
2023/01/21 05:12:00;;;;;;;68.03;35.17;;;;;;;;;;4992234;28;20186;-89
2023/01/21 05:14:26;;;;;;;70.57;35.13;;;;;;;;;;4975162;28;20178;-89
2023/01/21 05:16:52;;;;;;;65.20;35.90;;;;;;;;;;4985109;28;20196;-81
2023/01/21 05:19:18;;;;;;;70.30;35.30;;;;;;;;;;4987171;28;20184;-81
2023/01/21 05:21:44;;;;;;;71.27;35.77;;;;;;;;;;4974090;28;20181;-81
2023/01/21 05:24:10;;;;;;;66.03;35.73;;;;;;;;;;4992840;28;20214;-81
2023/01/21 05:26:36;;;;;;;74.47;37.43;;;;;;;;;;4963714;28;20194;-81
2023/01/21 05:29:02;;;;;;;75.53;36.47;;;;;;;;;;4997007;28;20209;-81
2023/01/21 05:31:28;;;;;;;76.30;38.80;;;;;;;;;;4985971;28;20265;-82
2023/01/21 05:33:55;;;;;;;78.77;36.87;;;;;;;;;;4982086;28;20224;-90
2023/01/21 05:36:21;;;;;;;78.87;37.97;;;;;;;;;;4980211;28;20209;-89
2023/01/21 05:38:47;;;;;;;77.10;38.90;;;;;;;;;;4984462;28;20184;-89
2023/01/21 05:41:13;;;;;;;77.27;36.80;;;;;;;;;;4999642;28;20189;-89
2023/01/21 05:43:39;;;;;;;75.83;38.07;;;;;;;;;;4979452;28;20181;-88
2023/01/21 05:46:05;;;;;;;79.47;37.83;;;;;;;;;;4994078;28;20192;-90
2023/01/21 05:48:31;;;;;;;81.83;37.93;;;;;;;;;;4979286;28;20235;-89
2023/01/21 05:50:58;;;;;;;85.83;39.83;;;;;;;;;;4979656;28;20249;-82
2023/01/21 05:53:24;;;;;;;86.43;40.30;;;;;;;;;;4988511;28;20200;-82
2023/01/21 05:55:51;;;;;;;90.97;40.77;;;;;;;;;;4999809;28;20230;-81
2023/01/21 05:58:17;;;;;;;90.77;40.87;;;;;;;;;;4978474;28;20182;-81
2023/01/21 06:00:43;;;;;;;88.30;41.50;;;;;;;;;;4989426;28;20180;-81
2023/01/21 06:03:09;;;;;;;90.27;41.33;;;;;;;;;;4975102;28;20228;-81
2023/01/21 06:05:35;;;;;;;95.10;40.77;;;;;;;;;;4985384;28;20178;-81
2023/01/21 06:08:01;;;;;;;93.80;40.80;;;;;;;;;;4972763;28;20315;-81
2023/01/21 06:10:27;;;;;;;91.97;39.80;;;;;;;;;;4987475;28;20181;-81
2023/01/21 06:12:53;;;;;;;91.23;41.20;;;;;;;;;;4988802;28;20173;-81
2023/01/21 06:15:19;;;;;;;96.73;42.07;;;;;;;;;;4971829;28;20273;-81
2023/01/21 06:17:46;;;;;;;97.00;41.50;;;;;;;;;;4972115;28;20186;-81
2023/01/21 06:20:12;;;;;;;97.87;41.97;;;;;;;;;;5006114;28;20196;-81
2023/01/21 06:22:38;;;;;;;99.53;42.23;;;;;;;;;;4987147;28;20185;-81
2023/01/21 06:25:04;;;;;;;101.47;41.93;;;;;;;;;;4981150;28;20186;-81
2023/01/21 06:27:30;;;;;;;109.67;42.83;;;;;;;;;;4981025;28;20284;-81
2023/01/21 06:29:56;;;;;;;99.27;42.80;;;;;;;;;;4994067;28;20313;-81
2023/01/21 06:32:22;;;;;;;105.50;41.67;;;;;;;;;;4971803;28;20273;-81
2023/01/21 06:34:48;;;;;;;103.07;41.70;;;;;;;;;;4995710;28;20289;-81
2023/01/21 06:37:14;;;;;;;114.67;43.67;;;;;;;;;;4978650;28;20178;-82
2023/01/21 06:39:40;;;;;;;111.20;43.33;;;;;;;;;;4970800;28;20276;-81
2023/01/21 06:42:06;;;;;;;107.73;42.27;;;;;;;;;;4977655;28;20203;-81
2023/01/21 06:44:33;;;;;;;106.20;42.33;;;;;;;;;;4975761;28;20217;-81
2023/01/21 06:46:59;;;;;;;115.53;42.43;;;;;;;;;;4970885;28;20193;-81
2023/01/21 06:49:25;;;;;;;105.67;41.70;;;;;;;;;;4974952;28;20241;-81
2023/01/21 06:51:51;;;;;;;102.10;39.93;;;;;;;;;;4972521;28;20182;-81
2023/01/21 06:54:17;;;;;;;109.43;40.70;;;;;;;;;;4987259;28;20177;-81
2023/01/21 06:56:43;;;;;;;105.90;41.27;;;;;;;;;;4986149;28;20187;-80
2023/01/21 06:59:09;;;;;;;109.60;40.77;;;;;;;;;;4970890;28;20201;-79
2023/01/21 07:01:35;;;;;;;110.27;41.50;;;;;;;;;;4974550;28;20205;-79
2023/01/21 07:04:02;;;;;;;139.90;58.85;;;;;;;;;;4970685;28;20498;-79
2023/01/21 07:06:28;;;;;;;109.83;44.53;;;;;;;;;;4971269;28;20209;-81
2023/01/21 07:08:54;;;;;;;109.43;42.50;;;;;;;;;;4985689;28;20205;-79
2023/01/21 07:11:20;;;;;;;106.10;41.13;;;;;;;;;;4986213;28;20189;-80
2023/01/21 07:13:46;;;;;;;99.27;41.40;;;;;;;;;;4972195;28;20189;-79
2023/01/21 07:16:12;;;;;;;102.10;40.37;;;;;;;;;;4972959;28;20189;-79
2023/01/21 07:18:38;;;;;;;100.93;42.30;;;;;;;;;;4987340;28;20177;-79
2023/01/21 07:21:04;;;;;;;104.70;41.43;;;;;;;;;;4973599;28;20200;-79
2023/01/21 07:23:30;;;;;;;93.77;40.93;;;;;;;;;;4981870;28;20194;-80
2023/01/21 07:25:56;;;;;;;100.47;41.20;;;;;;;;;;4982171;28;20232;-79
2023/01/21 07:28:22;;;;;;;93.83;39.57;;;;;;;;;;4963552;28;20196;-79
2023/01/21 07:30:48;;;;;;;100.10;42.53;;;;;;;;;;4976739;28;20190;-82
2023/01/21 07:33:14;;;;;;;92.13;40.10;;;;;;;;;;4978024;28;20182;-81
2023/01/21 07:35:40;;;;;;;94.90;40.37;;;;;;;;;;4962489;28;20185;-81
2023/01/21 07:38:06;;;;;;;99.10;41.97;;;;;;;;;;4996317;28;20178;-81
2023/01/21 07:40:33;;;;;;;87.77;40.17;;;;;;;;;;4999340;28;20177;-82
2023/01/21 07:42:59;;;;;;;88.97;39.43;;;;;;;;;;4979765;28;20193;-82
2023/01/21 07:45:25;;;;;;;93.10;41.43;;;;;;;;;;4980100;28;20192;-82
2023/01/21 07:47:51;;;;;;;90.43;42.17;;;;;;;;;;4992189;28;20276;-90
2023/01/21 07:50:17;;;;;;;108.15;56.30;;;;;;;;;;4966320;28;20520;-90
2023/01/21 07:52:43;;;;;;;94.43;45.33;;;;;;;;;;4977347;28;20253;-89
2023/01/21 07:55:09;;;;;;;84.90;42.33;;;;;;;;;;4986840;28;20213;-91
2023/01/21 07:57:35;;;;;;;80.20;39.63;;;;;;;;;;4996510;28;20193;-90
2023/01/21 08:00:02;;;;;;;81.60;40.00;;;;;;;;;;4996490;28;20221;-90
2023/01/21 08:02:27;;;;;;;79.93;39.87;;;;;;;;;;4980941;28;20185;-90
2023/01/21 08:04:53;;;;;;;79.17;38.93;;;;;;;;;;4971364;28;20332;-90
2023/01/21 08:07:19;;;;;;;78.80;39.17;;;;;;;;;;4961018;28;20190;-89
2023/01/21 08:09:46;;;;;;;78.87;38.87;;;;;;;;;;4973217;28;20216;-89
2023/01/21 08:12:12;;;;;;;77.33;39.30;;;;;;;;;;4979973;28;20284;-90
2023/01/21 08:14:38;;;;;;;71.63;37.53;;;;;;;;;;4985205;28;20216;-89
2023/01/21 08:17:04;;;;;;;72.43;37.27;;;;;;;;;;4961157;28;20182;-90
2023/01/21 08:19:30;;;;;;;75.20;37.63;;;;;;;;;;4976929;28;20182;-81
2023/01/21 08:21:56;;;;;;;75.90;38.27;;;;;;;;;;4979116;28;20186;-81
2023/01/21 08:24:22;;;;;;;78.03;39.20;;;;;;;;;;4971524;28;20189;-82
2023/01/21 08:26:48;;;;;;;83.20;39.37;;;;;;;;;;4983635;28;20247;-81
2023/01/21 08:29:14;;;;;;;81.03;39.33;;;;;;;;;;4983621;28;20205;-81
2023/01/21 08:31:40;;;;;;;77.43;39.00;;;;;;;;;;4999762;28;20181;-81
2023/01/21 08:34:06;;;;;;;74.83;36.63;;;;;;;;;;4983441;28;20184;-81
2023/01/21 08:36:32;;;;;;;67.57;33.60;;;;;;;;;;4983674;28;20270;-81
2023/01/21 08:39:00;;;;;;;73.70;36.87;;;;;;;;;;4991360;28;20186;-81
2023/01/21 08:41:27;;;;;;;70.13;36.87;;;;;;;;;;4980082;28;20186;-81
2023/01/21 08:43:53;;;;;;;70.20;36.30;;;;;;;;;;4997659;28;20170;-81
2023/01/21 08:46:19;;;;;;;74.00;37.27;;;;;;;;;;4980007;28;20265;-81
2023/01/21 08:48:45;;;;;;;71.20;37.33;;;;;;;;;;4965636;28;20261;-81
2023/01/21 08:51:11;;;;;;;68.53;36.30;;;;;;;;;;4994883;28;20220;-81
2023/01/21 08:53:37;;;;;;;72.90;37.63;;;;;;;;;;4997111;28;20178;-81
2023/01/21 08:56:03;;;;;;;77.93;46.07;;;;;;;;;;4977594;28;20525;-81
2023/01/21 08:58:30;;;;;;;74.00;39.27;;;;;;;;;;4996360;28;20181;-81
2023/01/21 09:00:56;;;;;;;69.63;36.63;;;;;;;;;;4995198;28;20185;-81
2023/01/21 09:03:22;;;;;;;73.30;36.00;;;;;;;;;;4979549;28;20241;-81
2023/01/21 09:05:51;;;;;;;70.67;37.37;;;;;;;;;;4979899;28;20190;-81
2023/01/21 09:08:18;;;;;;;66.70;35.10;;;;;;;;;;4971092;28;20243;-81
2023/01/21 09:11:02;;;;;;;66.87;37.30;;;;;;;;;;4986343;28;20182;-82
2023/01/21 09:13:31;;;;;;;66.07;35.83;;;;;;;;;;4990277;28;20192;-82
2023/01/21 09:15:57;;;;;;;66.47;35.27;;;;;;;;;;4999594;28;20189;-82
2023/01/21 09:18:24;;;;;;;67.43;35.53;;;;;;;;;;4998636;28;20185;-82
2023/01/21 09:20:50;;;;;;;64.50;36.00;;;;;;;;;;5014969;28;20319;-82
2023/01/21 09:23:25;;;;;;;66.27;35.47;;;;;;;;;;5016183;28;20180;-82
2023/01/21 09:25:55;;;;;;;76.20;44.25;;;;;;;;;;4982969;28;20438;-81
2023/01/21 09:28:22;;;;;;;69.03;37.43;;;;;;;;;;4998810;28;20226;-81
2023/01/21 09:30:48;;;;;;;67.03;35.67;;;;;;;;;;4987704;28;20196;-81
2023/01/21 09:33:15;;;;;;;66.30;35.37;;;;;;;;;;4978620;28;20178;-81
2023/01/21 09:35:41;;;;;;;64.63;34.03;;;;;;;;;;4979098;28;20170;-81
2023/01/21 09:38:07;;;;;;;59.43;35.73;;;;;;;;;;4979320;28;20206;-82
2023/01/21 09:40:34;;;;;;;63.13;35.53;;;;;;;;;;4996140;28;20182;-82
2023/01/21 09:43:02;;;;;;;64.07;34.73;;;;;;;;;;4962930;28;20185;-81
2023/01/21 09:45:28;;;;;;;61.37;36.20;;;;;;;;;;4984908;28;20268;-81
2023/01/21 09:47:55;;;;;;;62.27;35.17;;;;;;;;;;4981972;28;20209;-81
2023/01/21 09:50:22;;;;;;;61.00;34.33;;;;;;;;;;4998132;28;20205;-81
2023/01/21 09:52:50;;;;;;;60.73;35.20;;;;;;;;;;4982214;28;20186;-81
2023/01/21 09:55:18;;;;;;;62.10;35.77;;;;;;;;;;4997930;28;20173;-81
2023/01/21 09:57:59;;;;;;;64.57;34.73;;;;;;;;;;4998107;28;20176;-81
2023/01/21 10:00:39;;;;;;;59.23;33.17;;;;;;;;;;4997473;28;20209;-78
2023/01/21 10:03:08;;;;;;;56.83;31.93;;;;;;;;;;4997967;28;20173;-79
2023/01/21 10:05:51;;;;;;;60.73;34.00;;;;;;;;;;4996954;28;20236;-78
2023/01/21 10:08:17;;;;;;;58.57;34.33;;;;;;;;;;4998684;28;20189;-79
2023/01/21 10:10:57;;;;;;;55.93;32.73;;;;;;;;;;4998537;28;20232;-79
2023/01/21 10:13:39;;;;;;;55.03;32.97;;;;;;;;;;4998131;28;20177;-78
2023/01/21 10:16:08;;;;;;;55.60;32.03;;;;;;;;;;5007013;28;20189;-81
2023/01/21 10:18:36;;;;;;;52.27;31.73;;;;;;;;;;4978506;28;20186;-81
2023/01/21 10:21:03;;;;;;;61.00;33.77;;;;;;;;;;4987818;28;20196;-81
2023/01/21 10:23:50;;;;;;;58.40;33.73;;;;;;;;;;4997353;28;20189;-81
2023/01/21 10:26:16;;;;;;;57.70;33.50;;;;;;;;;;5014811;28;20192;-81
2023/01/21 10:28:43;;;;;;;56.33;32.70;;;;;;;;;;4997526;28;20209;-81
2023/01/21 10:31:21;;;;;;;59.03;34.60;;;;;;;;;;4989015;28;20185;-78
2023/01/21 10:33:48;;;;;;;53.87;31.80;;;;;;;;;;4995586;28;20196;-89
2023/01/21 10:36:33;;;;;;;53.93;31.73;;;;;;;;;;4994670;28;20185;-89
2023/01/21 10:39:18;;;;;;;54.30;31.50;;;;;;;;;;4997861;28;20180;-90
2023/01/21 10:41:53;;;;;;;55.03;31.37;;;;;;;;;;4997901;28;20276;-82
2023/01/21 10:44:19;;;;;;;52.87;31.27;;;;;;;;;;4996925;28;20187;-82
2023/01/21 10:47:04;;;;;;;52.57;30.43;;;;;;;;;;4987991;28;20181;-82
2023/01/21 10:49:36;;;;;;;51.27;31.07;;;;;;;;;;4995940;28;20204;-79
2023/01/21 10:52:07;;;;;;;50.60;30.77;;;;;;;;;;4986009;28;20186;-78
2023/01/21 10:54:39;;;;;;;43.87;28.20;;;;;;;;;;4977716;28;20169;-79
2023/01/21 10:57:05;;;;;;;40.57;26.93;;;;;;;;;;4977566;28;20189;-79
2023/01/21 10:59:33;;;;;;;43.93;27.27;;;;;;;;;;4977685;28;20182;-79
2023/01/21 11:02:08;;;;;;;41.40;27.37;;;;;;;;;;4987954;28;20258;-79
2023/01/21 11:04:36;;;;;;;42.07;27.97;;;;;;;;;;4996704;28;20243;-79
2023/01/21 11:07:07;;;;;;;44.37;27.67;;;;;;;;;;4986237;28;20186;-82
2023/01/21 11:09:41;;;;;;;39.73;26.27;;;;;;;;;;4977134;28;20255;-82
2023/01/21 11:12:12;;;;;;;43.77;27.07;;;;;;;;;;4994529;28;20205;-82
2023/01/21 11:14:38;;;;;;;41.47;26.27;;;;;;;;;;4983662;28;20217;-82
2023/01/21 11:17:05;;;;;;;38.80;26.67;;;;;;;;;;4986849;28;20178;-82
2023/01/21 11:19:31;;;;;;;39.53;25.30;;;;;;;;;;5004173;28;20188;-82
2023/01/21 11:22:00;;;;;;;36.67;24.70;;;;;;;;;;4986153;28;20190;-82
2023/01/21 11:24:26;;;;;;;36.73;24.13;;;;;;;;;;4988066;28;20180;-79
2023/01/21 11:26:54;;;;;;;33.87;23.33;;;;;;;;;;4984651;28;20280;-79
2023/01/21 11:29:21;;;;;;;33.30;22.20;;;;;;;;;;4982519;28;20214;-80
2023/01/21 11:31:49;;;;;;;33.20;24.03;;;;;;;;;;4978016;28;20185;-79
2023/01/21 11:34:20;;;;;;;31.40;22.77;;;;;;;;;;5008100;28;20182;-79
2023/01/21 11:36:57;;;;;;;30.07;22.00;;;;;;;;;;4984311;28;20181;-79
2023/01/21 11:39:23;;;;;;;33.27;23.23;;;;;;;;;;4983239;28;20205;-82
2023/01/21 11:42:04;;;;;;;35.13;23.70;;;;;;;;;;4985886;28;20192;-82
2023/01/21 11:44:30;;;;;;;32.07;23.47;;;;;;;;;;4983835;28;20264;-82
2023/01/21 11:46:56;;;;;;;32.87;22.77;;;;;;;;;;4973370;28;20186;-82
2023/01/21 11:49:22;;;;;;;33.77;22.93;;;;;;;;;;4974744;28;20224;-82
2023/01/21 11:51:48;;;;;;;31.77;23.10;;;;;;;;;;4982438;28;20184;-82
2023/01/21 11:54:22;;;;;;;34.23;22.60;;;;;;;;;;4984498;28;20185;-82
2023/01/21 11:57:01;;;;;;;31.93;21.63;;;;;;;;;;4984516;28;20190;-82
2023/01/21 11:59:27;;;;;;;33.60;22.10;;;;;;;;;;4984921;28;20197;-82
2023/01/21 12:02:04;;;;;;;31.97;21.37;;;;;;;;;;4985347;28;20192;-82
2023/01/21 12:04:31;;;;;;;30.87;22.40;;;;;;;;;;4985542;28;20233;-81
2023/01/21 12:06:59;;;;;;;32.07;23.00;;;;;;;;;;4984790;28;20236;-81
2023/01/21 12:09:26;;;;;;;34.33;22.57;;;;;;;;;;4976408;28;20221;-81
2023/01/21 12:12:07;;;;;;;35.10;22.93;;;;;;;;;;4983830;28;20193;-81
2023/01/21 12:14:46;;;;;;;32.03;21.60;;;;;;;;;;4990323;28;20190;-81
2023/01/21 12:17:20;;;;;;;31.73;21.93;;;;;;;;;;4982219;28;20235;-81
2023/01/21 12:19:55;;;;;;;31.70;21.40;;;;;;;;;;4987222;28;20196;-81
2023/01/21 12:22:30;;;;;;;29.67;20.63;;;;;;;;;;4988157;28;20220;-81
2023/01/21 12:25:06;;;;;;;32.33;22.37;;;;;;;;;;4980583;28;20181;-81
2023/01/21 12:27:35;;;;;;;32.47;21.53;;;;;;;;;;4988186;28;20193;-81
2023/01/21 12:30:08;;;;;;;31.23;21.23;;;;;;;;;;4981252;28;20206;-90
2023/01/21 12:32:37;;;;;;;30.13;21.07;;;;;;;;;;4980934;28;20206;-90
2023/01/21 12:35:16;;;;;;;30.53;20.87;;;;;;;;;;4983107;28;20340;-90
2023/01/21 12:37:47;;;;;;;31.20;20.80;;;;;;;;;;4981456;28;20181;-89
2023/01/21 12:40:15;;;;;;;31.03;21.10;;;;;;;;;;4991775;28;20194;-90
2023/01/21 12:42:44;;;;;;;29.50;20.63;;;;;;;;;;4995784;28;20232;-89
2023/01/21 12:45:12;;;;;;;30.73;21.37;;;;;;;;;;4995434;28;20271;-90
2023/01/21 12:47:45;;;;;;;31.60;22.00;;;;;;;;;;4989445;28;20193;-89
2023/01/21 12:50:24;;;;;;;31.03;21.80;;;;;;;;;;4988524;28;20213;-78
2023/01/21 12:53:02;;;;;;;30.90;20.80;;;;;;;;;;4980611;28;20184;-78
2023/01/21 12:55:36;;;;;;;31.50;20.57;;;;;;;;;;5011206;28;20278;-78
2023/01/21 12:58:04;;;;;;;30.63;21.60;;;;;;;;;;4984591;28;20204;-79
2023/01/21 13:00:42;;;;;;;29.87;20.63;;;;;;;;;;4981819;28;20186;-79
2023/01/21 13:03:09;;;;;;;33.93;22.30;;;;;;;;;;4980024;28;20220;-81
2023/01/21 13:05:38;;;;;;;31.13;22.03;;;;;;;;;;4997079;28;20226;-81
2023/01/21 13:08:04;;;;;;;30.87;21.97;;;;;;;;;;4998433;28;20186;-81
2023/01/21 13:10:30;;;;;;;31.70;21.60;;;;;;;;;;4980919;28;20348;-81
2023/01/21 13:12:59;;;;;;;31.57;20.83;;;;;;;;;;4987707;28;20280;-81
2023/01/21 13:15:33;;;;;;;32.27;21.80;;;;;;;;;;4995138;28;20196;-81
2023/01/21 13:18:01;;;;;;;31.93;21.13;;;;;;;;;;4984192;28;20178;-81
2023/01/21 13:20:30;;;;;;;31.77;22.07;;;;;;;;;;4997463;28;20193;-90
2023/01/21 13:23:12;;;;;;;31.40;21.63;;;;;;;;;;4980171;28;20197;-90
2023/01/21 13:25:49;;;;;;;32.83;22.17;;;;;;;;;;4979663;28;20178;-90
2023/01/21 13:28:18;;;;;;;32.93;22.13;;;;;;;;;;5004935;28;20195;-89
2023/01/21 13:30:49;;;;;;;29.70;21.80;;;;;;;;;;4999135;28;20208;-91
2023/01/21 13:33:18;;;;;;;31.90;22.13;;;;;;;;;;4993021;28;20185;-90
2023/01/21 13:36:14;;;;;;;33.13;21.67;;;;;;;;;;4979768;28;20229;-90
2023/01/21 13:39:00;;;;;;;30.97;22.10;;;;;;;;;;4958799;28;20195;-90
2023/01/21 13:41:44;;;;;;;37.07;22.47;;;;;;;;;;4999057;28;20185;-90
2023/01/21 13:44:19;;;;;;;33.13;22.50;;;;;;;;;;5013170;28;20193;-89
2023/01/21 13:46:48;;;;;;;34.43;21.77;;;;;;;;;;4999238;28;20184;-83
2023/01/21 13:49:20;;;;;;;33.47;21.80;;;;;;;;;;4998665;28;20205;-82
2023/01/21 13:51:49;;;;;;;37.80;22.43;;;;;;;;;;5016016;28;20234;-82
2023/01/21 13:54:25;;;;;;;33.43;22.20;;;;;;;;;;4988267;28;20186;-82
2023/01/21 13:56:57;;;;;;;35.00;23.50;;;;;;;;;;4979373;28;20185;-83
2023/01/21 13:59:28;;;;;;;37.37;22.17;;;;;;;;;;4996343;28;20190;-82
2023/01/21 14:02:06;;;;;;;36.07;23.83;;;;;;;;;;4978754;28;20186;-82
2023/01/21 14:04:35;;;;;;;33.00;23.20;;;;;;;;;;4988168;28;20247;-82
2023/01/21 14:07:09;;;;;;;36.90;23.87;;;;;;;;;;4979764;28;20244;-82
2023/01/21 14:09:38;;;;;;;37.23;24.63;;;;;;;;;;4987411;28;20295;-81
2023/01/21 14:12:04;;;;;;;37.70;25.27;;;;;;;;;;4998645;28;20180;-82
2023/01/21 14:14:51;;;;;;;41.73;25.67;;;;;;;;;;4986152;28;20188;-82
2023/01/21 14:20:13;;;;;;;41.47;25.50;;;;;;;;;;4968966;28;20218;-79
2023/01/21 14:22:49;;;;;;;37.50;24.97;;;;;;;;;;4957352;28;20221;-78
2023/01/21 14:25:27;;;;;;;41.37;25.43;;;;;;;;;;4956098;28;20192;-81
2023/01/21 14:28:14;;;;;;;41.97;25.73;;;;;;;;;;4958196;28;20224;-83
2023/01/21 14:30:57;;;;;;;43.47;26.70;;;;;;;;;;4973323;28;20214;-83
2023/01/21 14:33:27;;;;;;;42.63;26.97;;;;;;;;;;4973341;28;20183;-84
2023/01/21 14:36:03;;;;;;;37.70;25.63;;;;;;;;;;4957335;28;20183;-85